Time,TemperatureF,DewpointF,PressureIn,WindDirection,WindDirectionDegrees,WindSpeedMPH,WindSpeedGustMPH,Humidity,HourlyPrecipIn,Conditions,Clouds,dailyrainin,SoftwareType,DateUTC
2013-04-19 00:01:00,48.0,0.0,-100.00,ENE,73,5.0,12.0,13,-99.99,,,-99.99,,2013-04-19 07:01:00,
2013-04-19 00:12:00,49.0,0.0,-100.00,NE,56,6.0,15.0,13,-99.99,,,-99.99,,2013-04-19 07:12:00,
2013-04-19 00:21:00,49.0,0.0,-100.00,NNW,329,3.0,9.0,13,-99.99,,,-99.99,,2013-04-19 07:21:00,
2013-04-19 00:31:00,49.0,0.0,-100.00,NNE,29,5.0,15.0,13,-99.99,,,-99.99,,2013-04-19 07:31:00,
2013-04-19 00:42:00,49.0,0.0,-100.00,NNE,29,5.0,15.0,13,-99.99,,,-99.99,,2013-04-19 07:42:00,
2013-04-19 00:52:00,49.0,0.0,-100.00,NE,45,5.0,12.0,13,-99.99,,,-99.99,,2013-04-19 07:52:00,
2013-04-19 01:02:00,48.0,0.0,-100.00,WSW,258,4.0,10.0,13,-99.99,,,-99.99,,2013-04-19 08:02:00,
2013-04-19 01:12:00,49.0,0.0,-100.00,NW,322,4.0,12.0,13,-99.99,,,-99.99,,2013-04-19 08:12:00,
2013-04-19 01:21:00,49.0,-1.0,-100.00,NNE,12,5.0,15.0,12,-99.99,,,-99.99,,2013-04-19 08:21:00,
2013-04-19 01:32:00,49.0,-1.0,-100.00,North,3,6.0,14.0,12,-99.99,,,-99.99,,2013-04-19 08:32:00,
2013-04-19 01:42:00,49.0,-1.0,-100.00,NE,42,8.0,23.0,12,-99.99,,,-99.99,,2013-04-19 08:42:00,
2013-04-19 01:51:00,49.0,-1.0,-100.00,North,349,7.0,20.0,12,-99.99,,,-99.99,,2013-04-19 08:51:00,
2013-04-19 02:01:00,49.0,-1.0,-100.00,NE,39,7.0,20.0,12,-99.99,,,-99.99,,2013-04-19 09:01:00,
2013-04-19 02:11:00,50.0,-1.0,-100.00,NE,45,9.0,27.0,12,-99.99,,,-99.99,,2013-04-19 09:11:00,
2013-04-19 02:21:00,50.0,-1.0,-100.00,NE,34,10.0,26.0,12,-99.99,,,-99.99,,2013-04-19 09:21:00,
2013-04-19 02:32:00,49.0,-1.0,-100.00,NE,52,7.0,26.0,12,-99.99,,,-99.99,,2013-04-19 09:32:00,
2013-04-19 02:42:00,50.0,-1.0,-100.00,NE,53,11.0,33.0,12,-99.99,,,-99.99,,2013-04-19 09:42:00,
2013-04-19 02:52:00,50.0,-1.0,-100.00,NNE,32,12.0,26.0,12,-99.99,,,-99.99,,2013-04-19 09:52:00,
2013-04-19 03:02:00,49.0,-1.0,-100.00,North,357,8.0,23.0,12,-99.99,,,-99.99,,2013-04-19 10:02:00,
2013-04-19 03:13:00,49.0,-1.0,-100.00,ESE,115,6.0,15.0,12,-99.99,,,-99.99,,2013-04-19 10:13:00,
2013-04-19 03:23:00,49.0,-1.0,-100.00,NNE,31,14.0,35.0,12,-99.99,,,-99.99,,2013-04-19 10:23:00,
2013-04-19 03:33:00,50.0,-1.0,-100.00,NE,36,14.0,35.0,12,-99.99,,,-99.99,,2013-04-19 10:33:00,
2013-04-19 03:42:00,50.0,-1.0,-100.00,NNE,30,14.0,32.0,12,-99.99,,,-99.99,,2013-04-19 10:42:00,
2013-04-19 03:52:00,50.0,-1.0,-100.00,NNE,15,11.0,25.0,12,-99.99,,,-99.99,,2013-04-19 10:52:00,
2013-04-19 04:02:00,50.0,-1.0,-100.00,NNE,31,12.0,26.0,12,-99.99,,,-99.99,,2013-04-19 11:02:00,
2013-04-19 04:11:00,50.0,-1.0,-100.00,NNE,19,9.0,27.0,12,-99.99,,,-99.99,,2013-04-19 11:11:00,
2013-04-19 04:21:00,50.0,-1.0,-100.00,NNE,27,9.0,24.0,12,-99.99,,,-99.99,,2013-04-19 11:21:00,
2013-04-19 04:32:00,49.0,0.0,-100.00,North,2,7.0,23.0,13,-99.99,,,-99.99,,2013-04-19 11:32:00,
2013-04-19 04:42:00,50.0,-1.0,-100.00,NE,51,9.0,26.0,12,-99.99,,,-99.99,,2013-04-19 11:42:00,
2013-04-19 04:52:00,50.0,-1.0,-100.00,NNE,27,8.0,21.0,12,-99.99,,,-99.99,,2013-04-19 11:52:00,
2013-04-19 05:02:00,49.0,0.0,-100.00,NNE,20,7.0,18.0,13,-99.99,,,-99.99,,2013-04-19 12:02:00,
2013-04-19 05:12:00,49.0,0.0,-100.00,ENE,74,8.0,21.0,13,-99.99,,,-99.99,,2013-04-19 12:12:00,
2013-04-19 05:22:00,50.0,-1.0,-100.00,ENE,63,8.0,38.0,12,-99.99,,,-99.99,,2013-04-19 12:22:00,
2013-04-19 05:32:00,50.0,-1.0,-100.00,ENE,63,8.0,38.0,12,-99.99,,,-99.99,,2013-04-19 12:32:00,
2013-04-19 05:42:00,49.0,0.0,-100.00,North,352,7.0,19.0,13,-99.99,,,-99.99,,2013-04-19 12:42:00,
2013-04-19 05:52:00,49.0,0.0,-100.00,NNE,20,6.0,18.0,13,-99.99,,,-99.99,,2013-04-19 12:52:00,
2013-04-19 06:01:00,49.0,0.0,-100.00,SW,219,6.0,15.0,13,-99.99,,,-99.99,,2013-04-19 13:01:00,
2013-04-19 06:11:00,49.0,0.0,-100.00,NNE,33,7.0,23.0,13,-99.99,,,-99.99,,2013-04-19 13:11:00,
2013-04-19 06:21:00,49.0,0.0,-100.00,East,81,7.0,22.0,13,-99.99,,,-99.99,,2013-04-19 13:21:00,
2013-04-19 06:32:00,49.0,0.0,-100.00,ENE,64,7.0,24.0,13,-99.99,,,-99.99,,2013-04-19 13:32:00,
2013-04-19 06:42:00,49.0,0.0,-100.00,ENE,66,8.0,25.0,13,-99.99,,,-99.99,,2013-04-19 13:42:00,
2013-04-19 06:52:00,49.0,0.0,-100.00,NE,40,11.0,24.0,13,-99.99,,,-99.99,,2013-04-19 13:52:00,
2013-04-19 07:01:00,49.0,0.0,-100.00,NE,39,8.0,21.0,13,-99.99,,,-99.99,,2013-04-19 14:01:00,
2013-04-19 07:11:00,49.0,0.0,-100.00,NE,43,9.0,22.0,13,-99.99,,,-99.99,,2013-04-19 14:11:00,
2013-04-19 07:21:00,50.0,1.0,-100.00,NNE,21,7.0,18.0,13,-99.99,,,-99.99,,2013-04-19 14:21:00,
2013-04-19 07:32:00,50.0,1.0,-100.00,NNE,25,8.0,19.0,13,-99.99,,,-99.99,,2013-04-19 14:32:00,
2013-04-19 07:42:00,50.0,1.0,-100.00,NE,45,10.0,29.0,13,-99.99,,,-99.99,,2013-04-19 14:42:00,
2013-04-19 07:52:00,51.0,2.0,-100.00,NE,41,9.0,24.0,13,-99.99,,,-99.99,,2013-04-19 14:52:00,
2013-04-19 08:01:00,51.0,2.0,-100.00,NE,52,8.0,19.0,13,-99.99,,,-99.99,,2013-04-19 15:01:00,
2013-04-19 08:11:00,51.0,2.0,-100.00,NNE,32,10.0,27.0,13,-99.99,,,-99.99,,2013-04-19 15:11:00,
2013-04-19 08:21:00,51.0,2.0,-100.00,North,1,7.0,22.0,13,-99.99,,,-99.99,,2013-04-19 15:21:00,
2013-04-19 08:33:00,52.0,3.0,-100.00,NE,51,7.0,18.0,13,-99.99,,,-99.99,,2013-04-19 15:33:00,
2013-04-19 08:43:00,52.0,3.0,-100.00,NE,45,9.0,20.0,13,-99.99,,,-99.99,,2013-04-19 15:43:00,
2013-04-19 08:52:00,52.0,3.0,-100.00,NE,41,10.0,21.0,13,-99.99,,,-99.99,,2013-04-19 15:52:00,
2013-04-19 09:03:00,53.0,4.0,-100.00,NE,55,8.0,25.0,13,-99.99,,,-99.99,,2013-04-19 16:03:00,
2013-04-19 09:12:00,53.0,4.0,-100.00,ENE,60,14.0,26.0,13,-99.99,,,-99.99,,2013-04-19 16:12:00,
2013-04-19 09:23:00,53.0,4.0,-100.00,NE,48,8.0,22.0,13,-99.99,,,-99.99,,2013-04-19 16:23:00,
2013-04-19 09:32:00,54.0,4.0,-100.00,NNE,24,5.0,16.0,13,-99.99,,,-99.99,,2013-04-19 16:32:00,
2013-04-19 09:42:00,54.0,4.0,-100.00,NNE,29,7.0,18.0,13,-99.99,,,-99.99,,2013-04-19 16:42:00,
2013-04-19 09:52:00,55.0,5.0,-100.00,North,10,5.0,17.0,13,-99.99,,,-99.99,,2013-04-19 16:52:00,
2013-04-19 10:02:00,55.0,5.0,-100.00,NE,38,7.0,18.0,13,-99.99,,,-99.99,,2013-04-19 17:02:00,
2013-04-19 10:11:00,55.0,5.0,-100.00,East,79,11.0,24.0,13,-99.99,,,-99.99,,2013-04-19 17:11:00,
2013-04-19 10:21:00,55.0,5.0,-100.00,ENE,66,13.0,25.0,13,-99.99,,,-99.99,,2013-04-19 17:21:00,
2013-04-19 10:32:00,55.0,3.0,-100.00,ENE,66,16.0,25.0,12,-99.99,,,-99.99,,2013-04-19 17:32:00,
2013-04-19 10:42:00,55.0,3.0,-100.00,ENE,64,14.0,26.0,12,-99.99,,,-99.99,,2013-04-19 17:42:00,
2013-04-19 10:52:00,55.0,3.0,-100.00,ENE,65,16.0,27.0,12,-99.99,,,-99.99,,2013-04-19 17:52:00,
2013-04-19 11:01:00,56.0,4.0,-100.00,ENE,59,10.0,26.0,12,-99.99,,,-99.99,,2013-04-19 18:01:00,
2013-04-19 11:13:00,57.0,5.0,-100.00,East,90,11.0,23.0,12,-99.99,,,-99.99,,2013-04-19 18:13:00,
2013-04-19 11:22:00,57.0,5.0,-100.00,ENE,67,12.0,25.0,12,-99.99,,,-99.99,,2013-04-19 18:22:00,
2013-04-19 11:32:00,57.0,5.0,-100.00,ENE,72,15.0,25.0,12,-99.99,,,-99.99,,2013-04-19 18:32:00,
2013-04-19 11:42:00,56.0,2.0,-100.00,ENE,68,17.0,25.0,11,-99.99,,,-99.99,,2013-04-19 18:42:00,
2013-04-19 11:52:00,57.0,5.0,-100.00,ENE,72,15.0,24.0,12,-99.99,,,-99.99,,2013-04-19 18:52:00,
2013-04-19 12:01:00,57.0,3.0,-100.00,ENE,69,14.0,23.0,11,-99.99,,,-99.99,,2013-04-19 19:01:00,
2013-04-19 12:11:00,58.0,4.0,-100.00,ENE,67,14.0,26.0,11,-99.99,,,-99.99,,2013-04-19 19:11:00,
2013-04-19 12:21:00,58.0,4.0,-100.00,ENE,61,13.0,24.0,11,-99.99,,,-99.99,,2013-04-19 19:21:00,
2013-04-19 12:31:00,58.0,4.0,-100.00,ENE,65,10.0,21.0,11,-99.99,,,-99.99,,2013-04-19 19:31:00,
2013-04-19 12:41:00,58.0,4.0,-100.00,ENE,74,13.0,22.0,11,-99.99,,,-99.99,,2013-04-19 19:41:00,
2013-04-19 12:52:00,59.0,5.0,-100.00,ENE,72,11.0,22.0,11,-99.99,,,-99.99,,2013-04-19 19:52:00,
2013-04-19 13:01:00,59.0,5.0,-100.00,ENE,68,10.0,17.0,11,-99.99,,,-99.99,,2013-04-19 20:01:00,
2013-04-19 13:11:00,60.0,5.0,-100.00,ENE,71,11.0,19.0,11,-99.99,,,-99.99,,2013-04-19 20:11:00,
2013-04-19 13:22:00,60.0,5.0,-100.00,ENE,69,10.0,17.0,11,-99.99,,,-99.99,,2013-04-19 20:22:00,
2013-04-19 13:31:00,61.0,6.0,-100.00,ENE,68,8.0,16.0,11,-99.99,,,-99.99,,2013-04-19 20:31:00,
2013-04-19 13:41:00,61.0,4.0,-100.00,East,82,10.0,16.0,10,-99.99,,,-99.99,,2013-04-19 20:41:00,
2013-04-19 13:51:00,61.0,4.0,-100.00,ENE,64,9.0,19.0,10,-99.99,,,-99.99,,2013-04-19 20:51:00,
2013-04-19 14:01:00,61.0,4.0,-100.00,ENE,73,10.0,15.0,10,-99.99,,,-99.99,,2013-04-19 21:01:00,
2013-04-19 14:11:00,62.0,7.0,-100.00,ENE,68,10.0,19.0,11,-99.99,,,-99.99,,2013-04-19 21:11:00,
2013-04-19 14:21:00,61.0,4.0,-100.00,ENE,63,11.0,17.0,10,-99.99,,,-99.99,,2013-04-19 21:21:00,
2013-04-19 14:32:00,62.0,7.0,-100.00,ENE,72,7.0,15.0,11,-99.99,,,-99.99,,2013-04-19 21:32:00,
2013-04-19 14:42:00,62.0,7.0,-100.00,ENE,72,7.0,15.0,11,-99.99,,,-99.99,,2013-04-19 21:42:00,
2013-04-19 14:52:00,64.0,6.0,-100.00,ENE,78,7.0,16.0,10,-99.99,,,-99.99,,2013-04-19 21:52:00,
2013-04-19 15:02:00,64.0,6.0,-100.00,NNE,28,5.0,12.0,10,-99.99,,,-99.99,,2013-04-19 22:02:00,
2013-04-19 15:12:00,63.0,3.0,-100.00,NE,48,5.0,11.0,9,-99.99,,,-99.99,,2013-04-19 22:12:00,
2013-04-19 15:22:00,65.0,5.0,-100.00,ENE,61,3.0,9.0,9,-99.99,,,-99.99,,2013-04-19 22:22:00,
2013-04-19 15:33:00,63.0,3.0,-100.00,NE,53,6.0,12.0,9,-99.99,,,-99.99,,2013-04-19 22:33:00,
2013-04-19 15:42:00,64.0,4.0,-100.00,NNE,28,4.0,9.0,9,-99.99,,,-99.99,,2013-04-19 22:42:00,
2013-04-19 15:52:00,65.0,5.0,-100.00,East,96,3.0,8.0,9,-99.99,,,-99.99,,2013-04-19 22:52:00,
2013-04-19 16:02:00,66.0,6.0,-100.00,NE,41,5.0,9.0,9,-99.99,,,-99.99,,2013-04-19 23:02:00,
2013-04-19 16:11:00,65.0,5.0,-100.00,East,84,2.0,12.0,9,-99.99,,,-99.99,,2013-04-19 23:11:00,
2013-04-19 16:22:00,67.0,6.0,-100.00,NE,50,3.0,8.0,9,-99.99,,,-99.99,,2013-04-19 23:22:00,
2013-04-19 16:31:00,66.0,6.0,-100.00,North,1,4.0,11.0,9,-99.99,,,-99.99,,2013-04-19 23:31:00,
2013-04-19 16:42:00,66.0,6.0,-100.00,NNE,18,4.0,8.0,9,-99.99,,,-99.99,,2013-04-19 23:42:00,
2013-04-19 16:52:00,65.0,5.0,-100.00,NNE,24,6.0,10.0,9,-99.99,,,-99.99,,2013-04-19 23:52:00,
2013-04-19 17:01:00,65.0,5.0,-100.00,NE,45,5.0,9.0,9,-99.99,,,-99.99,,2013-04-20 00:01:00,
2013-04-19 17:11:00,66.0,6.0,-100.00,NE,35,4.0,8.0,9,-99.99,,,-99.99,,2013-04-20 00:11:00,
2013-04-19 17:21:00,67.0,6.0,-100.00,NNE,16,3.0,6.0,9,-99.99,,,-99.99,,2013-04-20 00:21:00,
2013-04-19 17:31:00,68.0,7.0,-100.00,NW,305,4.0,12.0,9,-99.99,,,-99.99,,2013-04-20 00:31:00,
2013-04-19 17:41:00,68.0,7.0,-100.00,NW,305,4.0,12.0,9,-99.99,,,-99.99,,2013-04-20 00:41:00,
2013-04-19 17:51:00,68.0,7.0,-100.00,West,267,3.0,8.0,9,-99.99,,,-99.99,,2013-04-20 00:51:00,
2013-04-19 18:01:00,68.0,9.0,-100.00,West,274,9.0,20.0,10,-99.99,,,-99.99,,2013-04-20 01:01:00,
2013-04-19 18:11:00,66.0,14.0,-100.00,WSW,256,14.0,20.0,13,-99.99,,,-99.99,,2013-04-20 01:11:00,
2013-04-19 18:21:00,65.0,15.0,-100.00,West,262,14.0,19.0,14,-99.99,,,-99.99,,2013-04-20 01:21:00,
2013-04-19 18:32:00,65.0,15.0,-100.00,West,266,13.0,18.0,14,-99.99,,,-99.99,,2013-04-20 01:32:00,
2013-04-19 18:42:00,64.0,14.0,-100.00,West,265,13.0,17.0,14,-99.99,,,-99.99,,2013-04-20 01:42:00,
2013-04-19 18:52:00,64.0,14.0,-100.00,West,270,11.0,15.0,14,-99.99,,,-99.99,,2013-04-20 01:52:00,
2013-04-19 19:01:00,63.0,15.0,-100.00,West,261,10.0,14.0,15,-99.99,,,-99.99,,2013-04-20 02:01:00,
2013-04-19 19:11:00,62.0,14.0,-100.00,West,272,9.0,13.0,15,-99.99,,,-99.99,,2013-04-20 02:11:00,
2013-04-19 19:21:00,62.0,14.0,-100.00,WNW,287,8.0,11.0,15,-99.99,,,-99.99,,2013-04-20 02:21:00,
2013-04-19 19:32:00,61.0,13.0,-100.00,West,281,7.0,11.0,15,-99.99,,,-99.99,,2013-04-20 02:32:00,
2013-04-19 19:42:00,60.0,14.0,-100.00,WNW,286,8.0,10.0,16,-99.99,,,-99.99,,2013-04-20 02:42:00,
2013-04-19 19:52:00,59.0,14.0,-100.00,West,280,5.0,10.0,17,-99.99,,,-99.99,,2013-04-20 02:52:00,
2013-04-19 20:01:00,58.0,15.0,-100.00,West,265,3.0,6.0,18,-99.99,,,-99.99,,2013-04-20 03:01:00,
2013-04-19 20:11:00,57.0,14.0,-100.00,ESE,106,1.0,3.0,18,-99.99,,,-99.99,,2013-04-20 03:11:00,
2013-04-19 20:21:00,56.0,13.0,-100.00,ENE,76,2.0,5.0,18,-99.99,,,-99.99,,2013-04-20 03:21:00,
2013-04-19 20:33:00,57.0,13.0,-100.00,WNW,293,5.0,8.0,17,-99.99,,,-99.99,,2013-04-20 03:33:00,
2013-04-19 20:43:00,56.0,13.0,-100.00,WSW,255,3.0,7.0,18,-99.99,,,-99.99,,2013-04-20 03:43:00,
2013-04-19 20:52:00,56.0,12.0,-100.00,WNW,282,4.0,8.0,17,-99.99,,,-99.99,,2013-04-20 03:52:00,
2013-04-19 21:02:00,56.0,10.0,-100.00,West,281,4.0,8.0,16,-99.99,,,-99.99,,2013-04-20 04:02:00,
2013-04-19 21:12:00,56.0,12.0,-100.00,West,267,2.0,5.0,17,-99.99,,,-99.99,,2013-04-20 04:12:00,
2013-04-19 21:23:00,56.0,10.0,-100.00,WSW,250,3.0,5.0,16,-99.99,,,-99.99,,2013-04-20 04:23:00,
2013-04-19 21:32:00,55.0,12.0,-100.00,SE,125,1.0,3.0,18,-99.99,,,-99.99,,2013-04-20 04:32:00,
2013-04-19 21:42:00,55.0,11.0,-100.00,NNE,22,1.0,3.0,17,-99.99,,,-99.99,,2013-04-20 04:42:00,
2013-04-19 21:52:00,55.0,11.0,-100.00,East,84,1.0,4.0,17,-99.99,,,-99.99,,2013-04-20 04:52:00,
2013-04-19 22:01:00,55.0,11.0,-100.00,North,6,1.0,4.0,17,-99.99,,,-99.99,,2013-04-20 05:01:00,
2013-04-19 22:12:00,55.0,10.0,-100.00,NNW,335,2.0,4.0,16,-99.99,,,-99.99,,2013-04-20 05:12:00,
2013-04-19 22:21:00,56.0,10.0,-100.00,ENE,65,2.0,3.0,16,-99.99,,,-99.99,,2013-04-20 05:21:00,
2013-04-19 22:32:00,55.0,10.0,-100.00,East,82,0.0,1.0,16,-99.99,,,-99.99,,2013-04-20 05:32:00,
2013-04-19 22:42:00,56.0,10.0,-100.00,ENE,65,1.0,2.0,16,-99.99,,,-99.99,,2013-04-20 05:42:00,
2013-04-19 22:51:00,55.0,11.0,-100.00,ESE,118,1.0,2.0,17,-99.99,,,-99.99,,2013-04-20 05:51:00,
2013-04-19 23:01:00,55.0,11.0,-100.00,West,281,3.0,10.0,17,-99.99,,,-99.99,,2013-04-20 06:01:00,
2013-04-19 23:12:00,54.0,10.0,-100.00,West,268,6.0,11.0,17,-99.99,,,-99.99,,2013-04-20 06:12:00,
2013-04-19 23:21:00,54.0,9.0,-100.00,West,268,5.0,9.0,16,-99.99,,,-99.99,,2013-04-20 06:21:00,
2013-04-19 23:31:00,54.0,7.0,-100.00,West,274,5.0,8.0,15,-99.99,,,-99.99,,2013-04-20 06:31:00,
2013-04-19 23:42:00,55.0,7.0,-100.00,WNW,291,4.0,8.0,14,-99.99,,,-99.99,,2013-04-20 06:42:00,
2013-04-19 23:52:00,54.0,7.0,-100.00,East,79,2.0,4.0,15,-99.99,,,-99.99,,2013-04-20 06:52:00,